sensor_id;sensor_type;location;lat;lon;timestamp;pressure;altitude;pressure_sealevel;temperature;humidity
9460;BME280;4768;42.664;23.240;2022-09-09T00:00:37;-9872.00;;;16.14;100.00
9460;BME280;4768;42.664;23.240;2022-09-09T00:03:13;-9873.00;;;16.18;100.00
9460;BME280;4768;42.664;23.240;2022-09-09T00:05:50;-9876.84;;;16.31;100.00
9460;BME280;4768;42.664;23.240;2022-09-09T00:08:21;-9870.00;;;16.07;100.00
9460;BME280;4768;42.664;23.240;2022-09-09T00:10:51;-9867.16;;;15.97;100.00
9460;BME280;4768;42.664;23.240;2022-09-09T00:13:24;-9866.03;;;15.94;100.00
9460;BME280;4768;42.664;23.240;2022-09-09T00:15:57;-9864.16;;;15.87;100.00
9460;BME280;4768;42.664;23.240;2022-09-09T00:18:29;-9865.75;;;15.93;100.00
9460;BME280;4768;42.664;23.240;2022-09-09T00:21:05;-9864.47;;;15.88;100.00
9460;BME280;4768;42.664;23.240;2022-09-09T00:23:35;-9860.19;;;15.73;100.00
9460;BME280;4768;42.664;23.240;2022-09-09T00:26:09;-9861.47;;;15.78;100.00
9460;BME280;4768;42.664;23.240;2022-09-09T00:28:46;-9857.47;;;15.64;100.00
9460;BME280;4768;42.664;23.240;2022-09-09T00:31:19;-9859.75;;;15.72;100.00
9460;BME280;4768;42.664;23.240;2022-09-09T00:33:48;-9861.47;;;15.78;100.00
9460;BME280;4768;42.664;23.240;2022-09-09T00:36:21;-9861.75;;;15.79;100.00
9460;BME280;4768;42.664;23.240;2022-09-09T00:38:51;-9862.88;;;15.83;100.00
9460;BME280;4768;42.664;23.240;2022-09-09T00:41:22;-9862.31;;;15.81;100.00
9460;BME280;4768;42.664;23.240;2022-09-09T00:43:57;-9858.34;;;15.67;100.00
9460;BME280;4768;42.664;23.240;2022-09-09T00:46:44;-9861.19;;;15.77;100.00
9460;BME280;4768;42.664;23.240;2022-09-09T00:49:20;-9863.47;;;15.85;100.00
9460;BME280;4768;42.664;23.240;2022-09-09T00:52:05;-9862.03;;;15.80;100.00
9460;BME280;4768;42.664;23.240;2022-09-09T00:54:43;-9862.47;;;15.81;100.00
9460;BME280;4768;42.664;23.240;2022-09-09T00:57:23;-9861.59;;;15.78;100.00
9460;BME280;4768;42.664;23.240;2022-09-09T00:59:58;-9860.59;;;15.75;100.00
9460;BME280;4768;42.664;23.240;2022-09-09T01:02:35;-9860.31;;;15.74;100.00
9460;BME280;4768;42.664;23.240;2022-09-09T01:05:10;-9863.59;;;15.85;100.00
9460;BME280;4768;42.664;23.240;2022-09-09T01:07:44;-9861.47;;;15.78;100.00
9460;BME280;4768;42.664;23.240;2022-09-09T01:10:21;-9858.47;;;15.67;100.00
9460;BME280;4768;42.664;23.240;2022-09-09T01:12:55;-9860.47;;;15.74;100.00
9460;BME280;4768;42.664;23.240;2022-09-09T01:15:26;-9860.59;;;15.75;100.00
9460;BME280;4768;42.664;23.240;2022-09-09T01:18:02;-9861.47;;;15.78;100.00
9460;BME280;4768;42.664;23.240;2022-09-09T01:20:37;-9859.91;;;15.72;100.00
9460;BME280;4768;42.664;23.240;2022-09-09T01:23:32;-9859.19;;;15.70;100.00
9460;BME280;4768;42.664;23.240;2022-09-09T01:26:17;-9858.03;;;15.66;100.00
9460;BME280;4768;42.664;23.240;2022-09-09T01:28:46;-9857.19;;;15.63;100.00
9460;BME280;4768;42.664;23.240;2022-09-09T01:31:17;-9854.63;;;15.54;100.00
9460;BME280;4768;42.664;23.240;2022-09-09T01:33:44;-9855.91;;;15.58;100.00
9460;BME280;4768;42.664;23.240;2022-09-09T01:36:15;-9856.19;;;15.59;100.00
9460;BME280;4768;42.664;23.240;2022-09-09T01:38:44;-9856.06;;;15.59;100.00
9460;BME280;4768;42.664;23.240;2022-09-09T01:41:11;-9853.06;;;15.48;100.00
9460;BME280;4768;42.664;23.240;2022-09-09T01:43:39;-9845.66;;;15.23;100.00
9460;BME280;4768;42.664;23.240;2022-09-09T01:46:06;-9843.94;;;15.17;100.00
9460;BME280;4768;42.664;23.240;2022-09-09T01:48:33;-9843.81;;;15.16;100.00
9460;BME280;4768;42.664;23.240;2022-09-09T01:51:00;-9843.38;;;15.15;100.00
9460;BME280;4768;42.664;23.240;2022-09-09T01:53:26;-9847.38;;;15.29;100.00
9460;BME280;4768;42.664;23.240;2022-09-09T01:56:02;-9842.38;;;15.11;100.00
9460;BME280;4768;42.664;23.240;2022-09-09T01:58:42;-9840.66;;;15.05;100.00
9460;BME280;4768;42.664;23.240;2022-09-09T02:01:17;-9840.81;;;15.06;100.00
9460;BME280;4768;42.664;23.240;2022-09-09T02:03:52;-9844.66;;;15.19;100.00
9460;BME280;4768;42.664;23.240;2022-09-09T02:06:27;-9845.66;;;15.23;100.00
9460;BME280;4768;42.664;23.240;2022-09-09T02:08:56;-9845.94;;;15.24;100.00
9460;BME280;4768;42.664;23.240;2022-09-09T02:11:26;-9846.38;;;15.25;100.00
9460;BME280;4768;42.664;23.240;2022-09-09T02:14:00;-9845.22;;;15.21;100.00
9460;BME280;4768;42.664;23.240;2022-09-09T02:16:33;-9845.22;;;15.21;100.00
9460;BME280;4768;42.664;23.240;2022-09-09T02:19:06;-9841.66;;;15.09;100.00
9460;BME280;4768;42.664;23.240;2022-09-09T02:21:34;-9838.25;;;14.97;100.00
9460;BME280;4768;42.664;23.240;2022-09-09T02:24:04;-9839.09;;;15.00;100.00
9460;BME280;4768;42.664;23.240;2022-09-09T02:26:34;-9838.81;;;14.99;100.00
9460;BME280;4768;42.664;23.240;2022-09-09T02:29:06;-9840.25;;;15.04;100.00
9460;BME280;4768;42.664;23.240;2022-09-09T02:31:34;-9839.38;;;15.01;100.00
9460;BME280;4768;42.664;23.240;2022-09-09T02:34:05;-9844.94;;;15.20;100.00
9460;BME280;4768;42.664;23.240;2022-09-09T02:36:35;-9849.06;;;15.35;100.00
9460;BME280;4768;42.664;23.240;2022-09-09T02:39:07;-9850.94;;;15.41;100.00
9460;BME280;4768;42.664;23.240;2022-09-09T02:41:37;-9848.50;;;15.33;100.00
9460;BME280;4768;42.664;23.240;2022-09-09T02:44:10;-9844.09;;;15.17;100.00
9460;BME280;4768;42.664;23.240;2022-09-09T02:47:06;-9843.81;;;15.16;100.00
9460;BME280;4768;42.664;23.240;2022-09-09T02:49:41;-9840.97;;;15.06;100.00
9460;BME280;4768;42.664;23.240;2022-09-09T02:52:14;-9836.53;;;14.91;100.00
9460;BME280;4768;42.664;23.240;2022-09-09T02:54:42;-9834.97;;;14.86;100.00
9460;BME280;4768;42.664;23.240;2022-09-09T02:57:11;-9833.84;;;14.82;100.00
9460;BME280;4768;42.664;23.240;2022-09-09T02:59:40;-9838.41;;;14.98;100.00
9460;BME280;4768;42.664;23.240;2022-09-09T03:02:09;-9839.81;;;15.02;100.00
9460;BME280;4768;42.664;23.240;2022-09-09T03:04:37;-9842.66;;;15.12;100.00
9460;BME280;4768;42.664;23.240;2022-09-09T03:07:03;-9840.66;;;15.05;100.00
9460;BME280;4768;42.664;23.240;2022-09-09T03:09:31;-9840.09;;;15.03;100.00
9460;BME280;4768;42.664;23.240;2022-09-09T03:11:58;-9835.84;;;14.89;100.00
9460;BME280;4768;42.664;23.240;2022-09-09T03:14:25;-9834.13;;;14.83;100.00
9460;BME280;4768;42.664;23.240;2022-09-09T03:16:54;-9836.13;;;14.90;100.00
9460;BME280;4768;42.664;23.240;2022-09-09T03:19:21;-9834.56;;;14.84;100.00
9460;BME280;4768;42.664;23.240;2022-09-09T03:21:48;-9831.13;;;14.72;100.00
9460;BME280;4768;42.664;23.240;2022-09-09T03:24:15;-9829.44;;;14.66;100.00
9460;BME280;4768;42.664;23.240;2022-09-09T03:26:42;-9830.72;;;14.71;100.00
9460;BME280;4768;42.664;23.240;2022-09-09T03:29:10;-9829.28;;;14.66;100.00
9460;BME280;4768;42.664;23.240;2022-09-09T03:31:37;-9833.13;;;14.79;100.00
9460;BME280;4768;42.664;23.240;2022-09-09T03:34:06;-9829.84;;;14.68;100.00
9460;BME280;4768;42.664;23.240;2022-09-09T03:36:33;-9827.16;;;14.58;100.00
9460;BME280;4768;42.664;23.240;2022-09-09T03:39:00;-9823.59;;;14.46;100.00
9460;BME280;4768;42.664;23.240;2022-09-09T03:41:28;-9823.72;;;14.47;100.00
9460;BME280;4768;42.664;23.240;2022-09-09T03:43:55;-9826.72;;;14.57;100.00
9460;BME280;4768;42.664;23.240;2022-09-09T03:46:23;-9828.00;;;14.61;100.00
9460;BME280;4768;42.664;23.240;2022-09-09T03:48:51;-9830.16;;;14.69;100.00
9460;BME280;4768;42.664;23.240;2022-09-09T03:51:20;-9834.97;;;14.86;100.00
9460;BME280;4768;42.664;23.240;2022-09-09T03:53:47;-9838.69;;;14.98;100.00
9460;BME280;4768;42.664;23.240;2022-09-09T03:56:14;-9839.81;;;15.02;100.00
9460;BME280;4768;42.664;23.240;2022-09-09T03:58:41;-9844.38;;;15.18;100.00
9460;BME280;4768;42.664;23.240;2022-09-09T04:01:17;-9840.81;;;15.06;100.00
9460;BME280;4768;42.664;23.240;2022-09-09T04:03:44;-9840.09;;;15.03;100.00
9460;BME280;4768;42.664;23.240;2022-09-09T04:06:12;-9838.69;;;14.98;100.00
9460;BME280;4768;42.664;23.240;2022-09-09T04:08:41;-9838.81;;;14.99;100.00
9460;BME280;4768;42.664;23.240;2022-09-09T04:11:09;-9839.25;;;15.00;100.00
9460;BME280;4768;42.664;23.240;2022-09-09T04:13:37;-9841.25;;;15.07;100.00
9460;BME280;4768;42.664;23.240;2022-09-09T04:16:04;-9838.97;;;14.99;100.00
9460;BME280;4768;42.664;23.240;2022-09-09T04:18:31;-9841.94;;;15.10;100.00
9460;BME280;4768;42.664;23.240;2022-09-09T04:20:59;-9845.66;;;15.23;100.00
9460;BME280;4768;42.664;23.240;2022-09-09T04:23:27;-9845.66;;;15.23;100.00
9460;BME280;4768;42.664;23.240;2022-09-09T04:25:58;-9843.09;;;15.14;100.00
9460;BME280;4768;42.664;23.240;2022-09-09T04:28:26;-9843.38;;;15.15;100.00
9460;BME280;4768;42.664;23.240;2022-09-09T04:30:54;-9845.81;;;15.23;100.00
9460;BME280;4768;42.664;23.240;2022-09-09T04:33:23;-9849.22;;;15.35;100.00
9460;BME280;4768;42.664;23.240;2022-09-09T04:35:52;-9849.22;;;15.35;100.00
9460;BME280;4768;42.664;23.240;2022-09-09T04:38:20;-9849.22;;;15.35;100.00
9460;BME280;4768;42.664;23.240;2022-09-09T04:40:49;-9849.50;;;15.36;100.00
9460;BME280;4768;42.664;23.240;2022-09-09T04:43:19;-9849.38;;;15.36;100.00
9460;BME280;4768;42.664;23.240;2022-09-09T04:45:47;-9846.66;;;15.26;100.00
9460;BME280;4768;42.664;23.240;2022-09-09T04:48:14;-9848.38;;;15.32;100.00
9460;BME280;4768;42.664;23.240;2022-09-09T04:50:41;-9852.34;;;15.46;100.00
9460;BME280;4768;42.664;23.240;2022-09-09T04:53:08;-9857.91;;;15.65;100.00
9460;BME280;4768;42.664;23.240;2022-09-09T04:55:35;-9862.31;;;15.81;100.00
9460;BME280;4768;42.664;23.240;2022-09-09T04:58:03;-9866.88;;;15.96;100.00
9460;BME280;4768;42.664;23.240;2022-09-09T05:00:32;-9872.44;;;16.16;100.00
9460;BME280;4768;42.664;23.240;2022-09-09T05:03:03;-9877.56;;;16.34;100.00
9460;BME280;4768;42.664;23.240;2022-09-09T05:05:31;-9884.13;;;16.56;100.00
9460;BME280;4768;42.664;23.240;2022-09-09T05:08:01;-9887.69;;;16.69;100.00
9460;BME280;4768;42.664;23.240;2022-09-09T05:10:28;-9887.41;;;16.68;100.00
9460;BME280;4768;42.664;23.240;2022-09-09T05:12:55;-9891.53;;;16.82;100.00
9460;BME280;4768;42.664;23.240;2022-09-09T05:15:22;-9891.38;;;16.82;100.00
9460;BME280;4768;42.664;23.240;2022-09-09T05:17:50;-9887.69;;;16.69;100.00
9460;BME280;4768;42.664;23.240;2022-09-09T05:20:17;-9895.53;;;16.96;100.00
9460;BME280;4768;42.664;23.240;2022-09-09T05:22:44;-9900.22;;;17.12;100.00
9460;BME280;4768;42.664;23.240;2022-09-09T05:25:11;-9897.66;;;17.03;100.00
9460;BME280;4768;42.664;23.240;2022-09-09T05:27:38;-9900.22;;;17.12;100.00
9460;BME280;4768;42.664;23.240;2022-09-09T05:30:05;-9903.09;;;17.22;100.00
9460;BME280;4768;42.664;23.240;2022-09-09T05:32:32;-9907.22;;;17.37;100.00
9460;BME280;4768;42.664;23.240;2022-09-09T05:35:00;-9903.09;;;17.22;100.00
9460;BME280;4768;42.664;23.240;2022-09-09T05:37:28;-9906.06;;;17.33;100.00
9460;BME280;4768;42.664;23.240;2022-09-09T05:39:55;-9904.09;;;17.26;100.00
9460;BME280;4768;42.664;23.240;2022-09-09T05:42:23;-9915.91;;;17.67;100.00
9460;BME280;4768;42.664;23.240;2022-09-09T05:44:49;-9917.47;;;17.72;100.00
9460;BME280;4768;42.664;23.240;2022-09-09T05:47:19;-9915.63;;;17.66;100.00
9460;BME280;4768;42.664;23.240;2022-09-09T05:49:46;-9912.34;;;17.54;100.00
9460;BME280;4768;42.664;23.240;2022-09-09T05:52:14;-9910.22;;;17.47;100.00
9460;BME280;4768;42.664;23.240;2022-09-09T05:54:41;-9913.34;;;17.58;100.00
9460;BME280;4768;42.664;23.240;2022-09-09T05:57:08;-9919.47;;;17.79;100.00
9460;BME280;4768;42.664;23.240;2022-09-09T05:59:35;-9919.19;;;17.78;100.00
9460;BME280;4768;42.664;23.240;2022-09-09T06:02:02;-9922.19;;;17.89;100.00
9460;BME280;4768;42.664;23.240;2022-09-09T06:04:29;-9928.19;;;18.09;100.00
9460;BME280;4768;42.664;23.240;2022-09-09T06:06:56;-9929.03;;;18.12;100.00
9460;BME280;4768;42.664;23.240;2022-09-09T06:09:24;-9925.63;;;18.00;100.00
9460;BME280;4768;42.664;23.240;2022-09-09T06:11:51;-9941.03;;;18.54;100.00
9460;BME280;4768;42.664;23.240;2022-09-09T06:14:19;-6820.38;;;18.32;100.00
9460;BME280;4768;42.664;23.240;2022-09-09T06:16:47;-5094.88;;;18.54;100.00
9460;BME280;4768;42.664;23.240;2022-09-09T06:19:13;-3727.09;;;19.48;100.00
9460;BME280;4768;42.664;23.240;2022-09-09T06:21:40;2519.59;;;19.96;100.00
9460;BME280;4768;42.664;23.240;2022-09-09T06:24:07;7741.72;;;20.27;100.00
9460;BME280;4768;42.664;23.240;2022-09-09T06:26:37;11579.72;;;20.47;100.00
9460;BME280;4768;42.664;23.240;2022-09-09T06:29:06;17161.97;;;19.90;100.00
9460;BME280;4768;42.664;23.240;2022-09-09T06:31:34;7045.53;;;19.65;100.00
9460;BME280;4768;42.664;23.240;2022-09-09T06:34:04;6000.13;;;19.97;100.00
9460;BME280;4768;42.664;23.240;2022-09-09T06:36:33;5999.97;;;20.02;100.00
9460;BME280;4768;42.664;23.240;2022-09-09T06:39:00;9484.81;;;20.12;100.00
9460;BME280;4768;42.664;23.240;2022-09-09T06:41:29;10882.06;;;20.58;100.00
9460;BME280;4768;42.664;23.240;2022-09-09T06:43:57;17519.22;;;20.41;100.00
9460;BME280;4768;42.664;23.240;2022-09-09T06:46:26;11575.81;;;19.80;100.00
9460;BME280;4768;42.664;23.240;2022-09-09T06:48:54;12972.41;;;19.96;100.00
9460;BME280;4768;42.664;23.240;2022-09-09T06:51:23;14714.22;;;19.64;100.00
9460;BME280;4768;42.664;23.240;2022-09-09T06:53:52;8090.31;;;20.08;100.00
9460;BME280;4768;42.664;23.240;2022-09-09T06:56:21;12973.75;;;20.13;100.00
9460;BME280;4768;42.664;23.240;2022-09-09T06:58:49;13675.13;;;20.47;100.00
9460;BME280;4768;42.664;23.240;2022-09-09T07:01:19;14377.34;;;20.81;100.00
9460;BME280;4768;42.664;23.240;2022-09-09T07:03:48;19623.00;;;20.67;100.00
9460;BME280;4768;42.664;23.240;2022-09-09T07:06:17;22777.59;;;20.77;100.00
9460;BME280;4768;42.664;23.240;2022-09-09T07:08:48;25245.00;;;21.25;100.00
9460;BME280;4768;42.664;23.240;2022-09-09T07:11:15;26983.00;;;20.68;100.00
9460;BME280;4768;42.664;23.240;2022-09-09T07:13:42;22062.88;;;20.16;100.00
9460;BME280;4768;42.664;23.240;2022-09-09T07:16:10;16813.16;;;19.94;100.00
9460;BME280;4768;42.664;23.240;2022-09-09T07:18:39;14021.84;;;20.20;100.00
9460;BME280;4768;42.664;23.240;2022-09-09T07:21:07;11931.66;;;20.91;100.00
9460;BME280;4768;42.664;23.240;2022-09-09T07:23:35;23838.28;;;21.13;100.00
9460;BME280;4768;42.664;23.240;2022-09-09T07:26:02;25968.00;;;21.97;100.00
9460;BME280;4768;42.664;23.240;2022-09-09T07:28:29;32262.09;;;20.98;100.00
9460;BME280;4768;42.664;23.240;2022-09-09T07:30:57;28745.06;;;20.89;100.00
9460;BME280;4768;42.664;23.240;2022-09-09T07:33:25;27345.31;;;21.04;100.00
9460;BME280;4768;42.664;23.240;2022-09-09T07:35:53;31562.94;;;21.09;100.00
9460;BME280;4768;42.664;23.240;2022-09-09T07:38:20;21725.47;;;20.73;100.00
9460;BME280;4768;42.664;23.240;2022-09-09T07:40:48;25247.75;;;21.34;100.00
9460;BME280;4768;42.664;23.240;2022-09-09T07:43:14;30875.94;;;21.52;100.00
9460;BME280;4768;42.664;23.240;2022-09-09T07:45:42;37570.56;;;21.62;100.00
9460;BME280;4768;42.664;23.240;2022-09-09T07:48:09;37924.53;;;21.65;100.00
9460;BME280;4768;42.664;23.240;2022-09-09T07:50:36;33732.00;;;22.51;100.00
9460;BME280;4768;42.664;23.240;2022-09-09T07:53:04;40463.91;;;23.00;100.00
9460;BME280;4768;42.664;23.240;2022-09-09T07:55:31;64600.16;;;23.06;100.00
9460;BME280;4768;42.664;23.240;2022-09-09T07:57:58;67043.03;;;22.53;100.00
9460;BME280;4768;42.664;23.240;2022-09-09T08:00:25;68128.41;;;22.70;100.00
9460;BME280;4768;42.664;23.240;2022-09-09T08:02:53;63136.91;;;22.63;100.00
9460;BME280;4768;42.664;23.240;2022-09-09T08:05:20;68452.25;;;22.37;100.00
9460;BME280;4768;42.664;23.240;2022-09-09T08:07:47;68103.34;;;22.44;100.00
9460;BME280;4768;42.664;23.240;2022-09-09T08:10:15;69140.59;;;22.13;100.00
9460;BME280;4768;42.664;23.240;2022-09-09T08:12:43;69148.47;;;22.21;100.00
9460;BME280;4768;42.664;23.240;2022-09-09T08:15:10;76723.97;;;23.00;100.00
9460;BME280;4768;42.664;23.240;2022-09-09T08:17:37;85080.56;;;24.01;100.00
9460;BME280;4768;42.664;23.240;2022-09-09T08:20:05;125766.19;;;23.48;100.00
9460;BME280;4768;42.664;23.240;2022-09-09T08:22:31;136821.41;;;22.50;100.00
9460;BME280;4768;42.664;23.240;2022-09-09T08:24:59;114751.56;;;22.63;100.00
9460;BME280;4768;42.664;23.240;2022-09-09T08:27:28;111539.81;;;22.84;100.00
9460;BME280;4768;42.664;23.240;2022-09-09T08:29:55;118624.97;;;22.07;100.00
9460;BME280;4768;42.664;23.240;2022-09-09T08:32:22;107797.28;;;22.01;100.00
9460;BME280;4768;42.664;23.240;2022-09-09T08:34:49;94140.47;;;22.00;100.00
9460;BME280;4768;42.664;23.240;2022-09-09T08:37:16;93068.19;;;22.02;100.00
9460;BME280;4768;42.664;23.240;2022-09-09T08:39:44;88448.69;;;22.32;100.00
9460;BME280;4768;42.664;23.240;2022-09-09T08:42:21;115419.22;;;22.32;100.00
9460;BME280;4768;42.664;23.240;2022-09-09T08:45:02;100033.59;;;23.00;100.00
9460;BME280;4768;42.664;23.240;2022-09-09T08:47:41;154490.34;;;23.28;100.00
9460;BME280;4768;42.664;23.240;2022-09-09T08:50:18;167322.03;;;23.33;100.00
9460;BME280;4768;42.664;23.240;2022-09-09T08:52:53;173226.59;;;23.45;100.00
9460;BME280;4768;42.664;23.240;2022-09-09T08:55:25;167986.25;;;22.88;100.00
9460;BME280;4768;42.664;23.240;2022-09-09T08:57:56;169525.78;;;22.97;100.00
9460;BME280;4768;42.664;23.240;2022-09-09T09:00:29;172615.38;;;22.77;100.00
9460;BME280;4768;42.664;23.240;2022-09-09T09:03:05;172557.38;;;23.39;100.00
9460;BME280;4768;42.664;23.240;2022-09-09T09:05:37;173339.47;;;23.87;100.00
9460;BME280;4768;42.664;23.240;2022-09-09T09:08:14;173348.84;;;23.90;100.00
9460;BME280;4768;42.664;23.240;2022-09-09T09:10:47;173498.03;;;24.45;100.00
9460;BME280;4768;42.664;23.240;2022-09-09T09:13:18;173484.59;;;24.40;100.00
9460;BME280;4768;42.664;23.240;2022-09-09T09:15:51;173370.31;;;23.98;100.00
9460;BME280;4768;42.664;23.240;2022-09-09T09:18:20;173223.88;;;23.44;100.00
9460;BME280;4768;42.664;23.240;2022-09-09T09:20:51;173190.28;;;23.32;100.00
9460;BME280;4768;42.664;23.240;2022-09-09T09:23:22;173246.72;;;23.53;100.00
9460;BME280;4768;42.664;23.240;2022-09-09T09:25:50;173328.69;;;23.83;100.00
9460;BME280;4768;42.664;23.240;2022-09-09T09:28:24;173356.91;;;23.93;100.00
9460;BME280;4768;42.664;23.240;2022-09-09T09:30:55;173340.78;;;23.87;100.00
9460;BME280;4768;42.664;23.240;2022-09-09T09:33:27;173311.25;;;23.77;100.00
9460;BME280;4768;42.664;23.240;2022-09-09T09:35:57;173358.22;;;23.94;100.00
9460;BME280;4768;42.664;23.240;2022-09-09T09:38:26;173453.63;;;24.29;100.00
9460;BME280;4768;42.664;23.240;2022-09-09T09:40:54;173363.66;;;23.96;100.00
9460;BME280;4768;42.664;23.240;2022-09-09T09:43:26;173223.88;;;23.44;100.00
9460;BME280;4768;42.664;23.240;2022-09-09T09:45:55;173254.78;;;23.56;100.00
9460;BME280;4768;42.664;23.240;2022-09-09T09:48:24;173301.81;;;23.73;100.00
9460;BME280;4768;42.664;23.240;2022-09-09T09:50:52;173346.13;;;23.89;100.00
9460;BME280;4768;42.664;23.240;2022-09-09T09:53:23;173355.59;;;23.93;100.00
9460;BME280;4768;42.664;23.240;2022-09-09T09:55:55;173292.44;;;23.70;100.00
9460;BME280;4768;42.664;23.240;2022-09-09T09:58:23;173231.94;;;23.47;100.00
9460;BME280;4768;42.664;23.240;2022-09-09T10:00:52;173339.47;;;23.87;100.00
9460;BME280;4768;42.664;23.240;2022-09-09T10:03:23;173312.59;;;23.77;100.00
9460;BME280;4768;42.664;23.240;2022-09-09T10:05:51;173281.66;;;23.66;100.00
9460;BME280;4768;42.664;23.240;2022-09-09T10:08:18;173304.53;;;23.74;100.00
9460;BME280;4768;42.664;23.240;2022-09-09T10:11:07;173291.09;;;23.69;100.00
9460;BME280;4768;42.664;23.240;2022-09-09T10:13:48;173215.81;;;23.41;100.00
9460;BME280;4768;42.664;23.240;2022-09-09T10:16:34;173288.41;;;23.68;100.00
9460;BME280;4768;42.664;23.240;2022-09-09T10:19:09;173273.56;;;23.63;100.00
9460;BME280;4768;42.664;23.240;2022-09-09T10:22:16;173289.72;;;23.69;100.00
9460;BME280;4768;42.664;23.240;2022-09-09T10:25:10;173303.19;;;23.74;100.00
9460;BME280;4768;42.664;23.240;2022-09-09T10:27:51;173272.22;;;23.62;100.00
9460;BME280;4768;42.664;23.240;2022-09-09T10:30:23;173221.19;;;23.43;100.00
9460;BME280;4768;42.664;23.240;2022-09-09T10:33:00;173274.94;;;23.63;100.00
9460;BME280;4768;42.664;23.240;2022-09-09T10:35:35;173272.22;;;23.62;100.00
9460;BME280;4768;42.664;23.240;2022-09-09T10:38:13;173242.72;;;23.51;100.00
9460;BME280;4768;42.664;23.240;2022-09-09T10:40:58;173273.56;;;23.63;100.00
9460;BME280;4768;42.664;23.240;2022-09-09T10:46:08;173295.13;;;23.71;100.00
9460;BME280;4768;42.664;23.240;2022-09-09T10:48:49;173348.84;;;23.90;100.00
9460;BME280;4768;42.664;23.240;2022-09-09T10:51:29;173307.22;;;23.75;100.00
9460;BME280;4768;42.664;23.240;2022-09-09T10:54:21;173308.56;;;23.76;100.00
9460;BME280;4768;42.664;23.240;2022-09-09T10:56:55;173295.13;;;23.71;100.00
9460;BME280;4768;42.664;23.240;2022-09-09T10:59:25;173335.44;;;23.85;100.00
9460;BME280;4768;42.664;23.240;2022-09-09T11:01:57;173339.47;;;23.87;100.00
9460;BME280;4768;42.664;23.240;2022-09-09T11:04:28;173319.31;;;23.80;100.00
9460;BME280;4768;42.664;23.240;2022-09-09T11:07:00;173323.34;;;23.81;100.00
9460;BME280;4768;42.664;23.240;2022-09-09T11:09:35;173336.75;;;23.86;100.00
9460;BME280;4768;42.664;23.240;2022-09-09T11:12:05;173425.41;;;24.19;100.00
9460;BME280;4768;42.664;23.240;2022-09-09T11:14:41;173406.66;;;24.12;100.00
9460;BME280;4768;42.664;23.240;2022-09-09T11:17:12;173455.00;;;24.30;100.00
9460;BME280;4768;42.664;23.240;2022-09-09T11:19:43;173545.06;;;24.63;100.00
9460;BME280;4768;42.664;23.240;2022-09-09T11:22:18;173633.78;;;24.95;100.00
9460;BME280;4768;42.664;23.240;2022-09-09T11:24:49;173666.09;;;25.07;100.00
9460;BME280;4768;42.664;23.240;2022-09-09T11:27:21;173609.59;;;24.86;100.00
9460;BME280;4768;42.664;23.240;2022-09-09T11:33:34;173584.06;;;24.77;100.00
9460;BME280;4768;42.664;23.240;2022-09-09T11:36:19;173596.16;;;24.81;100.00
9460;BME280;4768;42.664;23.240;2022-09-09T11:38:54;173531.66;;;24.58;100.00
9460;BME280;4768;42.664;23.240;2022-09-09T11:41:33;173487.31;;;24.41;100.00
9460;BME280;4768;42.664;23.240;2022-09-09T11:44:10;173479.25;;;24.38;100.00
9460;BME280;4768;42.664;23.240;2022-09-09T11:46:38;173485.94;;;24.41;100.00
9460;BME280;4768;42.664;23.240;2022-09-09T11:49:26;173523.59;;;24.55;100.00
9460;BME280;4768;42.664;23.240;2022-09-09T11:51:53;173577.31;;;24.75;100.00
9460;BME280;4768;42.664;23.240;2022-09-09T11:54:33;173644.59;;;24.99;100.00
9460;BME280;4768;42.664;23.240;2022-09-09T11:57:24;173715.84;;;25.26;100.00
9460;BME280;4768;42.664;23.240;2022-09-09T11:59:51;173812.66;;;25.61;100.00
9460;BME280;4768;42.664;23.240;2022-09-09T12:02:22;173906.78;;;25.96;100.00
9460;BME280;4768;42.664;23.240;2022-09-09T12:04:55;173865.13;;;25.80;100.00
9460;BME280;4768;42.664;23.240;2022-09-09T12:07:33;173775.00;;;25.47;100.00
9460;BME280;4768;42.664;23.240;2022-09-09T12:10:05;173861.09;;;25.79;100.00
9460;BME280;4768;42.664;23.240;2022-09-09T12:12:46;173811.31;;;25.61;100.00
9460;BME280;4768;42.664;23.240;2022-09-09T12:15:23;173850.31;;;25.75;100.00
9460;BME280;4768;42.664;23.240;2022-09-09T12:17:52;173840.94;;;25.72;100.00
9460;BME280;4768;42.664;23.240;2022-09-09T12:20:20;173850.31;;;25.75;100.00
9460;BME280;4768;42.664;23.240;2022-09-09T12:23:04;173866.47;;;25.81;100.00
9460;BME280;4768;42.664;23.240;2022-09-09T12:25:47;173846.28;;;25.74;100.00
9460;BME280;4768;42.664;23.240;2022-09-09T12:28:19;173842.25;;;25.72;100.00
9460;BME280;4768;42.664;23.240;2022-09-09T12:30:53;173745.41;;;25.36;100.00
9460;BME280;4768;42.664;23.240;2022-09-09T12:33:22;173703.75;;;25.21;100.00
9460;BME280;4768;42.664;23.240;2022-09-09T12:35:53;173666.09;;;25.07;100.00
9460;BME280;4768;42.664;23.240;2022-09-09T12:38:26;173664.75;;;25.07;100.00
9460;BME280;4768;42.664;23.240;2022-09-09T12:40:58;173652.66;;;25.02;100.00
9460;BME280;4768;42.664;23.240;2022-09-09T12:43:26;173600.19;;;24.83;100.00
9460;BME280;4768;42.664;23.240;2022-09-09T12:45:56;173551.81;;;24.65;100.00
9460;BME280;4768;42.664;23.240;2022-09-09T12:48:30;173547.78;;;24.64;100.00
9460;BME280;4768;42.664;23.240;2022-09-09T12:50:58;173530.28;;;24.57;100.00
9460;BME280;4768;42.664;23.240;2022-09-09T12:53:29;173539.72;;;24.61;100.00
9460;BME280;4768;42.664;23.240;2022-09-09T12:56:00;173629.75;;;24.94;100.00
9460;BME280;4768;42.664;23.240;2022-09-09T12:58:28;173604.22;;;24.84;100.00
9460;BME280;4768;42.664;23.240;2022-09-09T13:00:58;173663.44;;;25.06;100.00
9460;BME280;4768;42.664;23.240;2022-09-09T13:03:26;173694.31;;;25.18;100.00
9460;BME280;4768;42.664;23.240;2022-09-09T13:05:57;173620.34;;;24.90;100.00
9460;BME280;4768;42.664;23.240;2022-09-09T13:08:25;173598.84;;;24.82;100.00
9460;BME280;4768;42.664;23.240;2022-09-09T13:10:55;173571.97;;;24.73;100.00
9460;BME280;4768;42.664;23.240;2022-09-09T13:13:26;173606.94;;;24.85;100.00
9460;BME280;4768;42.664;23.240;2022-09-09T13:15:56;173616.31;;;24.89;100.00
9460;BME280;4768;42.664;23.240;2022-09-09T13:18:27;173604.22;;;24.84;100.00
9460;BME280;4768;42.664;23.240;2022-09-09T13:20:56;173637.81;;;24.97;100.00
9460;BME280;4768;42.664;23.240;2022-09-09T13:23:27;173636.47;;;24.96;100.00